createdAt,value
2023-02-03T06:47:43.035Z,101095.63
2023-02-03T06:50:30.418Z,101095.63
2023-02-03T06:53:16.152Z,101103.53
2023-02-03T06:56:03.430Z,101103.59
2023-02-03T06:58:48.724Z,101094.97
2023-02-03T07:01:34.438Z,101104.25
2023-02-03T07:04:20.143Z,101100.81
2023-02-03T07:07:06.324Z,101094.41
2023-02-03T07:09:51.704Z,101115.63
2023-02-03T07:12:36.995Z,101121.50
2023-02-03T07:15:22.478Z,101108.53
2023-02-03T07:18:07.575Z,101110.28
2023-02-03T07:20:54.342Z,101124.87
2023-02-03T07:23:40.376Z,101117.78
2023-02-03T07:26:26.662Z,101127.34
2023-02-03T07:29:12.092Z,101138.59
2023-02-03T07:31:59.459Z,101129.16
2023-02-03T07:34:45.402Z,101130.84
2023-02-03T07:37:32.932Z,101127.22
2023-02-03T07:40:18.469Z,101120.28
2023-02-03T07:43:03.935Z,101124.81
2023-02-03T07:45:49.569Z,101109.25
2023-02-03T07:48:35.805Z,101126.84
2023-02-03T07:51:21.118Z,101118.22
2023-02-03T07:54:08.154Z,101124.81
2023-02-03T07:56:54.552Z,101135.13
2023-02-03T07:59:40.398Z,101129.06
2023-02-03T08:02:26.265Z,101131.34
2023-02-03T08:05:12.228Z,101129.78
2023-02-03T08:07:57.964Z,101117.97
2023-02-03T08:10:43.517Z,101107.47
2023-02-03T08:13:29.403Z,101113.72
2023-02-03T08:16:15.245Z,101103.50
2023-02-03T08:19:00.473Z,101080.81
2023-02-03T08:21:45.838Z,101094.25
2023-02-03T08:24:31.339Z,101079.12
2023-02-03T08:27:19.142Z,101087.06
2023-02-03T08:30:04.953Z,101097.50
2023-02-03T08:32:50.625Z,101098.16
2023-02-03T08:35:36.401Z,101098.50
2023-02-03T08:38:22.109Z,101094.09
2023-02-03T08:41:15.011Z,101094.66
2023-02-03T08:44:01.612Z,101095.41
2023-02-03T08:46:50.814Z,101094.59
2023-02-03T08:49:39.606Z,101087.22
2023-02-03T08:52:25.137Z,101077.84
2023-02-03T08:55:12.689Z,101062.97
2023-02-03T08:57:58.157Z,101076.81
2023-02-03T09:00:44.068Z,101065.72
2023-02-03T09:03:29.457Z,101061.50
2023-02-03T09:06:16.884Z,101061.31
2023-02-03T09:09:03.235Z,101065.81
2023-02-03T09:11:48.657Z,101057.31
2023-02-03T09:14:35.404Z,101040.53
2023-02-03T09:17:21.327Z,101052.03
2023-02-03T09:20:07.225Z,101037.34
2023-02-03T09:23:01.920Z,101037.28
2023-02-03T09:29:12.544Z,101033.19
2023-02-03T09:31:58.225Z,101031.41
2023-02-03T09:34:43.676Z,101028.91
2023-02-03T09:37:35.800Z,101006.69
2023-02-03T09:40:24.885Z,101011.25
2023-02-03T09:43:18.717Z,100989.59
2023-02-03T09:46:13.972Z,100991.78
2023-02-03T09:49:14.992Z,100997.22
2023-02-03T09:52:09.476Z,100982.34
2023-02-03T09:55:23.599Z,100987.53
2023-02-03T09:58:14.778Z,100981.31
2023-02-03T10:01:02.021Z,100965.66
2023-02-03T10:03:53.469Z,100971.25
2023-02-03T10:06:45.912Z,100961.72
2023-02-03T10:09:41.533Z,100950.13
2023-02-03T10:12:31.007Z,100928.00
2023-02-03T10:15:35.076Z,100932.25
2023-02-03T10:18:24.748Z,100925.16
2023-02-03T10:21:32.556Z,100919.56
2023-02-03T10:24:27.158Z,100918.94
2023-02-03T10:27:19.086Z,100921.22
2023-02-03T10:30:17.201Z,100913.50
2023-02-03T10:33:11.361Z,100887.59
2023-02-03T10:36:09.902Z,100900.22
2023-02-03T10:39:02.570Z,100900.16
2023-02-03T10:41:48.323Z,100889.44
2023-02-03T10:44:41.021Z,100880.59
2023-02-03T10:47:39.402Z,100880.09
2023-02-03T10:50:32.104Z,100886.91
2023-02-03T10:53:35.811Z,100865.19
2023-02-03T10:56:41.063Z,100869.84
2023-02-03T10:59:31.713Z,100845.72
2023-02-03T11:02:34.515Z,100855.06
2023-02-03T11:05:22.220Z,100850.16
2023-02-03T11:08:15.704Z,100834.50
2023-02-03T11:11:08.492Z,100848.09
2023-02-03T11:14:06.803Z,100842.19
2023-02-03T11:16:52.161Z,100829.69
2023-02-03T11:19:39.449Z,100825.06
2023-02-03T11:22:33.353Z,100821.50
2023-02-03T11:25:29.889Z,100816.09
2023-02-03T11:28:15.515Z,100812.59
2023-02-03T11:31:00.849Z,100805.72
2023-02-03T11:34:00.428Z,100786.34
2023-02-03T11:36:46.445Z,100791.41
2023-02-03T11:39:39.200Z,100782.50
2023-02-03T11:42:25.311Z,100777.88
2023-02-03T11:45:15.417Z,100758.87
2023-02-03T11:48:03.425Z,100768.63
2023-02-03T11:50:58.615Z,100762.97
2023-02-03T11:54:24.963Z,100754.94
2023-02-03T11:57:35.307Z,100741.06
2023-02-03T12:00:36.338Z,100727.19
2023-02-03T12:03:39.904Z,100728.37
2023-02-03T12:06:57.704Z,100732.91
2023-02-03T12:10:04.262Z,100720.88
2023-02-03T12:13:08.252Z,100715.75
2023-02-03T12:16:11.888Z,100712.66
2023-02-03T12:19:16.405Z,100705.06
2023-02-03T12:22:09.958Z,100700.09
2023-02-03T12:25:11.224Z,100698.75
2023-02-03T12:28:05.670Z,100684.34
2023-02-03T12:31:00.670Z,100670.28
2023-02-03T12:33:55.224Z,100666.19
2023-02-03T12:36:45.414Z,100656.75
2023-02-03T12:39:33.183Z,100633.03
2023-02-03T12:42:18.432Z,100637.47
2023-02-03T12:45:22.151Z,100627.75
2023-02-03T12:48:12.548Z,100621.31
2023-02-03T12:51:01.596Z,100612.88
